EDT,Max TemperatureF,Mean TemperatureF,Min TemperatureF,Max Dew PointF,MeanDew PointF,Min DewpointF,Max Humidity, Mean Humidity, Min Humidity, Max Sea Level PressureIn, Mean Sea Level PressureIn, Min Sea Level PressureIn, Max VisibilityMiles, Mean VisibilityMiles, Min VisibilityMiles, Max Wind SpeedMPH, Mean Wind SpeedMPH, Max Gust SpeedMPH,PrecipitationIn, CloudCover, Events, WindDirDegrees
2014-5-1,78,73,68,70,67,64,100,87,69,30.04,29.99,29.95,10,9,1,12,2,16,0.00,4,Thunderstorm,270
2014-5-2,68,64,60,66,58,52,100,82,60,30.00,29.96,29.93,10,10,10,6,2,,0.00,6,,295
2014-5-3,73,66,60,61,57,48,94,75,43,30.05,29.98,29.93,10,10,5,8,2,,0.00,4,,268
2014-5-4,86,68,51,59,52,46,100,62,25,30.09,30.05,30.00,10,10,2,10,4,17,0.00,0,,276
2014-5-5,91,74,57,61,55,50,94,55,24,30.06,30.01,29.94,10,10,10,9,3,,0.00,0,,257
2014-5-6,89,76,64,63,58,50,78,53,26,30.05,30.00,29.96,10,10,10,13,5,18,0.00,0,,238
2014-5-7,89,74,60,70,61,55,94,63,31,30.16,30.11,30.03,10,10,7,12,5,20,0.00,0,,183
2014-5-8,87,76,64,72,67,59,100,73,38,30.25,30.19,30.14,10,9,0,16,6,22,0.00,0,,168
2014-5-9,86,78,69,72,69,63,100,78,48,30.22,30.17,30.12,10,10,10,14,7,17,0.00,0,,168
2014-5-10,84,78,73,70,69,68,88,76,62,30.18,30.12,30.07,10,10,10,17,9,23,0.00,1,,166
2014-5-11,89,76,64,72,68,63,100,78,46,30.18,30.13,30.09,10,10,3,15,2,25,0.00,1,Thunderstorm,195
2014-5-12,86,74,62,72,66,63,100,79,45,30.23,30.17,30.13,10,9,0,13,3,17,0.00,0,,133
2014-5-13,84,74,64,72,67,63,100,81,54,30.19,30.14,30.12,10,8,0,12,4,17,0.00,3,,111
2014-5-14,82,72,62,75,70,63,100,85,70,30.15,30.09,30.02,10,8,0,16,5,22,0.00,5,,125
2014-5-15,80,72,64,73,71,61,100,89,70,30.05,29.96,29.88,10,9,2,15,8,20,0.00,7,Thunderstorm,172
2014-5-16,77,65,53,59,49,43,94,62,32,30.13,30.05,29.99,10,10,10,16,8,23,0.00,0,,290
2014-5-17,73,60,48,54,47,37,94,59,27,30.25,30.19,30.14,10,10,10,10,3,16,0.00,0,,78
2014-5-18,82,68,53,63,55,52,100,69,37,30.21,30.18,30.14,10,10,3,12,2,17,0.00,1,,195
2014-5-19,75,67,59,68,61,59,100,84,61,30.25,30.21,30.16,10,8,0,16,3,22,0.00,3,,68
2014-5-20,78,66,55,64,54,45,100,66,32,30.30,30.24,30.21,10,8,0,14,3,17,0.00,0,,97
2014-5-21,87,72,57,64,61,57,100,70,40,30.23,30.16,30.09,10,10,0,12,3,,0.00,1,,226
2014-5-22,91,80,68,66,63,59,88,61,34,30.13,30.06,29.98,10,10,10,16,7,22,0.00,0,,263
2014-5-23,95,82,69,70,66,63,83,62,34,30.06,30.02,29.97,10,10,10,9,5,,0.00,0,,270
2014-5-24,86,77,68,70,67,64,100,76,55,30.10,30.05,30.00,10,10,5,14,4,,0.00,0,,41
2014-5-25,82,73,64,73,68,64,100,80,61,30.21,30.13,30.08,10,8,0,15,4,18,0.00,3,Thunderstorm,108
2014-5-26,82,76,69,73,70,66,94,82,66,30.24,30.19,30.14,10,10,7,12,4,,0.00,3,Thunderstorm,136
2014-5-27,86,75,64,72,69,64,100,79,51,30.19,30.14,30.07,10,8,0,13,3,16,0.00,1,Thunderstorm,176
2014-5-28,89,80,71,70,69,66,94,73,46,30.11,30.06,30.01,10,10,1,12,4,17,0.00,1,,187
2014-5-29,86,78,69,73,70,64,100,80,55,30.08,30.04,30.01,10,9,2,13,2,17,0.00,1,Thunderstorm,163
2014-5-30,84,76,68,77,70,64,100,84,58,30.09,30.05,30.01,10,7,0,10,2,,0.00,3,Thunderstorm,158
2014-5-31,86,77,68,77,71,68,100,83,62,30.10,30.07,30.03,10,7,0,13,2,18,0.00,3,Thunderstorm,94